Gavle Sandviken Airport


Codes: ESSK/GVX
Name: Gavle Sandviken Airport
City: Gavle / Sandviken
Country: Sweden
Elevation: 224 ft.

Photos at Gavle Sandviken Airport


   Photos courtesy of SpottingLog. You can add your own sightings and photos by signing up for a free trial today.



No photos found.

Weather at Gavle Sandviken Airport


Time (UTC)DescriptionTempratureWindCloud coverageVisibilityPressureHumidity
18-Apr-2024 00:00Scattered Clouds-1°C7 mph, N25%10000m1013hPa87%
18-Apr-2024 03:00Broken Clouds-1°C7 mph, N65%10000m1014hPa80%
18-Apr-2024 06:00Overcast Clouds0°C9 mph, N94%10000m1016hPa65%
18-Apr-2024 09:00Overcast Clouds2°C9 mph, N100%10000m1015hPa71%
18-Apr-2024 12:00Light Snow2°C4 mph, NE100%2082m1015hPa86%
18-Apr-2024 15:00Light Snow1°C9 mph, NE100%10000m1015hPa85%
18-Apr-2024 18:00Overcast Clouds-0°C7 mph, NE100%10000m1015hPa84%
18-Apr-2024 21:00Overcast Clouds-1°C4 mph, NE100%4724m1015hPa90%
19-Apr-2024 00:00Light Snow-1°C7 mph, N100%0m1014hPa96%
19-Apr-2024 03:00Light Snow-1°C7 mph, NE100%132m1013hPa93%
19-Apr-2024 06:00Light Snow-0°C7 mph, NE100%8728m1013hPa82%
19-Apr-2024 09:00Light Snow2°C9 mph, NE100%10000m1012hPa69%
19-Apr-2024 12:00Overcast Clouds3°C9 mph, NE100%10000m1012hPa58%
19-Apr-2024 15:00Overcast Clouds1°C11 mph, NE100%10000m1013hPa66%
19-Apr-2024 18:00Overcast Clouds-2°C9 mph, N100%10000m1013hPa75%
19-Apr-2024 21:00Overcast Clouds-3°C9 mph, N100%10000m1014hPa72%
20-Apr-2024 00:00Overcast Clouds-3°C9 mph, N100%10000m1014hPa75%
20-Apr-2024 03:00Broken Clouds-4°C7 mph, N51%10000m1015hPa79%
20-Apr-2024 06:00Scattered Clouds-1°C9 mph, N48%10000m1016hPa61%
20-Apr-2024 09:00Clear Sky2°C9 mph, N9%10000m1018hPa44%
20-Apr-2024 12:00Broken Clouds2°C9 mph, NE51%10000m1020hPa47%
20-Apr-2024 15:00Overcast Clouds1°C7 mph, NE100%10000m1022hPa58%
20-Apr-2024 18:00Overcast Clouds-1°C2 mph, NE100%10000m1024hPa72%
20-Apr-2024 21:00Overcast Clouds-2°C4 mph, N100%10000m1026hPa78%
21-Apr-2024 00:00Overcast Clouds-2°C4 mph, N98%10000m1028hPa78%
21-Apr-2024 03:00Overcast Clouds-2°C4 mph, N100%10000m1030hPa77%
21-Apr-2024 06:00Overcast Clouds1°C7 mph, NE97%10000m1032hPa69%
21-Apr-2024 09:00Overcast Clouds3°C11 mph, NE87%10000m1035hPa58%
21-Apr-2024 12:00Overcast Clouds3°C11 mph, NE91%10000m1036hPa52%
21-Apr-2024 15:00Scattered Clouds2°C11 mph, NE48%10000m1037hPa55%
21-Apr-2024 18:00Scattered Clouds-2°C7 mph, NE32%10000m1038hPa74%
21-Apr-2024 21:00Clear Sky-3°C4 mph, N9%10000m1039hPa77%
22-Apr-2024 00:00Clear Sky-3°C7 mph, N7%10000m1038hPa79%
22-Apr-2024 03:00Clear Sky-3°C7 mph, N8%10000m1037hPa83%
22-Apr-2024 06:00Few Clouds0°C9 mph, N22%10000m1036hPa67%
22-Apr-2024 09:00Scattered Clouds4°C9 mph, NE43%10000m1035hPa51%
22-Apr-2024 12:00Scattered Clouds4°C9 mph, NE30%10000m1033hPa50%
22-Apr-2024 15:00Scattered Clouds3°C9 mph, NE45%10000m1031hPa56%
22-Apr-2024 18:00Broken Clouds-1°C4 mph, NE72%10000m1030hPa80%
22-Apr-2024 21:00Broken Clouds-4°C4 mph, N76%10000m1028hPa95%